Ride Results

Jill Sheean Memorial (27-02-2021)
Ride distance: 80.0 km

Outcomes - Jill Sheean Memorial (27-02-2021)
Division No. of Entries Retired / DNE Completed Withdrawn Ineligible V/O Percentage Completed
HW 5 - 5 - - - 100.00%
MW 10 - 10 - - - 100.00%
LW 8 - 8 - - - 100.00%
JN 3 - 2 1 - - 66.67%
Totals 26 - 25 1 - - 96.15%
Results - Jill Sheean Memorial (27-02-2021)
No. Rider Horse Place Time Leg Speeds Total
Km/Hr
H/R bpm
Heavyweight
98 Greg Johnson Jake 1 6:12:36 13.0, 12.7 12.88 41, 43, 50 (Avg:46)
G Greg Henry Bellawongarah Beau 2 (BC) 6:32:14 15.4, 10.1 12.24 38, 48, 44 (Avg:46)
38 Tony Purton Beer Street Hellyer 3 6:45:43 11.4, 12.2 11.83 48, 45, 47 (Avg:46)
82 Mark Dunn Calypso 4 7:16:40 11.2, 10.7 10.99 35, 43, 51 (Avg:47)
325 Ian Sims Quintally Spiderman 5 7:16:56 11.4, 10.5 10.99 43, 46, 47 (Avg:46)
Middleweight
171 Craig Wall Sierra Lodge Elysium Gold 1 (BC) 4:33:16 18.1, 17.0 17.57 42, 47, 52 (Avg:49)
62 Tara Nicklason Wongawol Legend 2 4:58:45 16.7, 15.4 16.07 32, 46, 46 (Avg:46)
57 Tania Jago Rivergum Ripper 3 5:36:38 15.4, 13.2 14.26 38, 43, 49 (Avg:46)
139 Cacia Rand Shayelle Sudden 4 6:01:57 13.2, 13.2 13.26 50, 44, 47 (Avg:45)
80 Noel Lockhart Lockleigh Park Turbulence 5 6:05:07 13.1, 13.1 13.15 31, 36, 39 (Avg:37)
77 Angus Alsop Lockleigh Park Destinee 6 6:05:11 13.1, 13.1 13.14 33, 40, 43 (Avg:41)
295 Amanda McHugh-Wall Santashka Stella 7 6:05:21 12.9, 13.2 13.14 39, 44, 52 (Avg:48)
99 Heather Johnson Black Heart Dashar 8 6:12:40 13.0, 12.7 12.88 35, 44, 46 (Avg:45)
136 Kaye Mitchell Beer Street Coven Moon 9 6:46:00 11.4, 12.2 11.82 57, 43, 51 (Avg:47)
262 Andrew Miles Beau 10 7:17:24 11.2, 10.7 10.97 41, 44, 53 (Avg:48)
Lightweight
54 Brooke McKenna Undurra Sahara 1 (BC) 4:33:15 18.2, 16.9 17.57 27, 42, 37 (Avg:39)
83 Angie Clark Castlebar Galahad 2 4:50:24 16.1, 16.8 16.53 40, 48, 50 (Avg:49)
42 Dianne Walsh Razorback Silver Wings 3 4:58:42 16.7, 15.4 16.07 37, 49, 46 (Avg:47)
113 Kirstie Lockhart Archerville Cimarron 4 5:28:21 13.1, 16.4 14.62 36, 47, 43 (Avg:45)
48 Asha Lamprey Count Yianni 5 5:38:28 13.5, 14.8 14.18 38, 39, 44 (Avg:41)
180 Nicole Ford Moonya Vodka 'n' Ice 6 6:07:35 13.0, 13.1 13.06 33, 41, 47 (Avg:44)
306 Jessica Goulding Beer Street Riversong 7 7:01:54 11.2, 11.5 11.38 35, 41, 43 (Avg:42)
100 Trish Smith Beaucheval Akhiran 8 7:16:27 11.2, 10.7 11.00 35, 46, 49 (Avg:47)
Junior
294 Matilda Rockliff Erinvale Jim 1 (BC) 5:38:24 15.1, 13.3 14.18 37, 48, 50 (Avg:49)
348 Janet McHugh Winters Hill Moves Like Magic 2 6:02:47 13.2, 13.2 13.23 36, 39, 51 (Avg:45)
237 Kiana Ford Amira Amani W/D after vetting L1 3:04:37 - 13.00 41, 54 (Avg:54)